Time;durP1;ratioP1;P1;durP2;ratioP2;P2;SDS_P1;SDS_P2;PMS_P1;PMS_P2;Temp;Humidity;BMP_temperature;BMP_pressure;BME280_temperature;BME280_humidity;BME280_pressure;Samples;Min_cycle;Max_cycle;Signal;HPM_P1;HPM_P2
2023/10/04 00:01:42;;;;;;;9.77;2.90;;;;;;;;;;5067725;28;20387;-61
2023/10/04 00:04:09;;;;;;;9.00;3.40;;;;;;;;;;5067804;28;20085;-61
2023/10/04 00:06:36;;;;;;;14.70;3.30;;;;;;;;;;5067906;28;20049;-61
2023/10/04 00:09:03;;;;;;;13.13;3.43;;;;;;;;;;5067676;28;20075;-61
2023/10/04 00:11:31;;;;;;;9.63;2.30;;;;;;;;;;5066922;28;20048;-61
2023/10/04 00:13:57;;;;;;;9.10;2.43;;;;;;;;;;5067489;28;20056;-61
2023/10/04 00:16:23;;;;;;;12.13;2.73;;;;;;;;;;5067594;28;20088;-61
2023/10/04 00:18:49;;;;;;;10.13;2.27;;;;;;;;;;5066831;28;20040;-61
2023/10/04 00:21:15;;;;;;;13.43;2.50;;;;;;;;;;5067400;28;20536;-61
2023/10/04 00:23:41;;;;;;;11.37;2.30;;;;;;;;;;5067581;28;20426;-61
2023/10/04 00:26:08;;;;;;;6.87;3.03;;;;;;;;;;5067529;28;20048;-61
2023/10/04 00:28:38;;;;;;;9.13;2.67;;;;;;;;;;5070892;28;20494;-61
2023/10/04 00:31:05;;;;;;;9.57;2.53;;;;;;;;;;5070595;28;20048;-61
2023/10/04 00:33:31;;;;;;;6.97;2.17;;;;;;;;;;5070964;28;20114;-61
2023/10/04 00:36:02;;;;;;;12.70;2.53;;;;;;;;;;5071227;28;20056;-61
2023/10/04 00:38:28;;;;;;;13.10;2.20;;;;;;;;;;5070971;28;20161;-61
2023/10/04 00:40:54;;;;;;;8.20;1.50;;;;;;;;;;5070422;28;20408;-61
2023/10/04 00:43:20;;;;;;;7.30;2.10;;;;;;;;;;5071036;28;20044;-61
2023/10/04 00:45:50;;;;;;;8.53;2.30;;;;;;;;;;5070984;28;20051;-62
2023/10/04 00:48:25;;;;;;;9.67;1.90;;;;;;;;;;5070982;28;20554;-61
2023/10/04 00:50:51;;;;;;;15.23;2.33;;;;;;;;;;5070338;28;20054;-61
2023/10/04 00:53:22;;;;;;;11.23;2.53;;;;;;;;;;5070984;28;20055;-61
2023/10/04 00:55:49;;;;;;;10.33;2.20;;;;;;;;;;5070565;28;20134;-61
2023/10/04 00:58:19;;;;;;;8.77;2.53;;;;;;;;;;5070670;28;20430;-61
2023/10/04 01:00:47;;;;;;;8.43;2.50;;;;;;;;;;5070446;28;20086;-61
2023/10/04 01:03:19;;;;;;;9.07;2.40;;;;;;;;;;5070672;28;20067;-62
2023/10/04 01:05:47;;;;;;;9.73;2.28;;;;;;;;;;5070256;28;20295;-63
2023/10/04 01:08:20;;;;;;;15.33;2.77;;;;;;;;;;5070874;28;20052;-63
2023/10/04 01:10:53;;;;;;;11.63;2.70;;;;;;;;;;5070515;28;20125;-62
2023/10/04 01:13:22;;;;;;;14.73;2.50;;;;;;;;;;5070738;28;20047;-62
2023/10/04 01:15:55;;;;;;;11.60;2.40;;;;;;;;;;5068619;28;20056;-62
2023/10/04 01:18:21;;;;;;;12.93;3.30;;;;;;;;;;5070428;28;20059;-63
2023/10/04 01:20:48;;;;;;;9.73;2.60;;;;;;;;;;5070148;28;20082;-62
2023/10/04 01:23:14;;;;;;;13.67;2.60;;;;;;;;;;5070062;28;20048;-62
2023/10/04 01:25:41;;;;;;;11.73;2.47;;;;;;;;;;5069907;28;20048;-63
2023/10/04 01:28:17;;;;;;;19.10;3.57;;;;;;;;;;5070082;28;20048;-62
2023/10/04 01:30:46;;;;;;;22.03;3.30;;;;;;;;;;5070280;28;20461;-63
2023/10/04 01:33:16;;;;;;;14.50;3.17;;;;;;;;;;5070078;28;20050;-62
2023/10/04 01:35:46;;;;;;;13.00;2.70;;;;;;;;;;5069018;28;20053;-62
2023/10/04 01:38:13;;;;;;;14.07;3.13;;;;;;;;;;5069124;28;20056;-62
2023/10/04 01:40:39;;;;;;;9.50;2.23;;;;;;;;;;5069815;28;20321;-62
2023/10/04 01:43:15;;;;;;;14.27;2.90;;;;;;;;;;5069876;28;20507;-62
2023/10/04 01:45:47;;;;;;;14.27;3.40;;;;;;;;;;5069784;28;20514;-63
2023/10/04 01:48:16;;;;;;;20.83;3.93;;;;;;;;;;5069219;28;20048;-63
2023/10/04 01:50:48;;;;;;;16.77;3.30;;;;;;;;;;5069756;28;20048;-66
2023/10/04 01:53:15;;;;;;;17.73;2.80;;;;;;;;;;5069648;28;20044;-62
2023/10/04 01:55:41;;;;;;;18.53;3.70;;;;;;;;;;5069833;28;20067;-62
2023/10/04 01:58:08;;;;;;;12.30;3.43;;;;;;;;;;5068241;28;20087;-62
2023/10/04 02:00:35;;;;;;;9.87;2.27;;;;;;;;;;5069116;28;20080;-62
2023/10/04 02:03:01;;;;;;;15.83;2.83;;;;;;;;;;5069640;28;20055;-63
2023/10/04 02:05:37;;;;;;;18.33;3.80;;;;;;;;;;5069650;28;20090;-63
2023/10/04 02:08:09;;;;;;;18.33;3.60;;;;;;;;;;5069620;28;20044;-63
2023/10/04 02:10:38;;;;;;;19.13;3.37;;;;;;;;;;5068955;28;20090;-62
2023/10/04 02:13:08;;;;;;;9.97;2.80;;;;;;;;;;5069372;28;20040;-62
2023/10/04 02:15:34;;;;;;;18.10;3.70;;;;;;;;;;5068994;28;20048;-62
2023/10/04 02:18:01;;;;;;;16.00;3.07;;;;;;;;;;5068987;28;20046;-62
2023/10/04 02:20:28;;;;;;;11.43;3.33;;;;;;;;;;5068709;28;20076;-62
2023/10/04 02:22:55;;;;;;;11.37;2.63;;;;;;;;;;5069058;28;20045;-62
2023/10/04 02:25:22;;;;;;;12.30;3.00;;;;;;;;;;5069030;28;20052;-63
2023/10/04 02:27:49;;;;;;;15.73;3.20;;;;;;;;;;5068771;28;20135;-62
2023/10/04 02:30:26;;;;;;;14.90;4.00;;;;;;;;;;5067571;28;20055;-62
2023/10/04 02:32:53;;;;;;;13.20;3.10;;;;;;;;;;5066744;28;20056;-62
2023/10/04 02:35:26;;;;;;;15.27;3.73;;;;;;;;;;5068903;28;20047;-63
2023/10/04 02:37:58;;;;;;;9.90;3.17;;;;;;;;;;5068396;28;20159;-63
2023/10/04 02:40:27;;;;;;;16.70;3.43;;;;;;;;;;5068779;28;20183;-62
2023/10/04 02:42:57;;;;;;;16.77;3.83;;;;;;;;;;5068424;28;20124;-63
2023/10/04 02:45:24;;;;;;;15.90;3.30;;;;;;;;;;5068982;28;20041;-62
2023/10/04 02:47:52;;;;;;;15.90;3.23;;;;;;;;;;5068004;28;20052;-62
2023/10/04 02:50:19;;;;;;;15.00;3.97;;;;;;;;;;5068060;28;20050;-63
2023/10/04 02:52:45;;;;;;;16.63;3.40;;;;;;;;;;5068442;28;20051;-63
2023/10/04 02:55:17;;;;;;;15.13;3.87;;;;;;;;;;5068609;28;20076;-63
2023/10/04 02:57:43;;;;;;;13.00;3.10;;;;;;;;;;5068415;28;20053;-62
2023/10/04 03:00:19;;;;;;;15.77;4.00;;;;;;;;;;5067894;28;20048;-63
2023/10/04 03:02:46;;;;;;;21.07;4.27;;;;;;;;;;5068770;28;20040;-62
2023/10/04 03:05:18;;;;;;;15.77;3.33;;;;;;;;;;5068387;28;20043;-63
2023/10/04 03:07:45;;;;;;;11.03;3.20;;;;;;;;;;5068352;28;20501;-63
2023/10/04 03:10:12;;;;;;;11.63;3.40;;;;;;;;;;5067631;28;20350;-62
2023/10/04 03:12:38;;;;;;;11.43;3.30;;;;;;;;;;5068088;28;20055;-62
2023/10/04 03:15:05;;;;;;;19.17;3.60;;;;;;;;;;5068371;28;20052;-62
2023/10/04 03:17:31;;;;;;;18.83;3.70;;;;;;;;;;5067515;28;20095;-62
2023/10/04 03:19:57;;;;;;;17.50;3.67;;;;;;;;;;5067882;28;20076;-63
2023/10/04 03:22:23;;;;;;;15.87;3.27;;;;;;;;;;5068371;28;20049;-62
2023/10/04 03:24:53;;;;;;;19.13;3.17;;;;;;;;;;5068010;28;20510;-63
2023/10/04 03:27:21;;;;;;;15.37;3.23;;;;;;;;;;5067945;28;20558;-62
2023/10/04 03:29:48;;;;;;;15.90;3.60;;;;;;;;;;5068105;28;20139;-62
2023/10/04 03:32:15;;;;;;;15.77;3.23;;;;;;;;;;5067259;28;20485;-63
2023/10/04 03:34:41;;;;;;;11.27;2.97;;;;;;;;;;5068111;28;20668;-63
2023/10/04 03:37:14;;;;;;;14.63;3.10;;;;;;;;;;5067834;28;20147;-62
2023/10/04 03:39:40;;;;;;;11.15;3.75;;;;;;;;;;5068012;28;20479;-62
2023/10/04 03:42:06;;;;;;;14.03;3.13;;;;;;;;;;5067586;28;20040;-62
2023/10/04 03:44:32;;;;;;;16.23;3.47;;;;;;;;;;5067643;28;20056;-63
2023/10/04 03:46:58;;;;;;;20.43;4.27;;;;;;;;;;5067984;28;20045;-63
2023/10/04 03:49:25;;;;;;;19.53;3.37;;;;;;;;;;5067876;28;20052;-63
2023/10/04 03:51:53;;;;;;;12.73;3.73;;;;;;;;;;5067696;28;20041;-62
2023/10/04 03:54:19;;;;;;;22.63;4.30;;;;;;;;;;5065956;28;20053;-63
2023/10/04 03:56:45;;;;;;;16.33;3.53;;;;;;;;;;5068128;28;20080;-62
2023/10/04 03:59:12;;;;;;;18.07;4.53;;;;;;;;;;5067681;28;20425;-62
2023/10/04 04:01:38;;;;;;;18.33;4.43;;;;;;;;;;5067044;28;20064;-62
2023/10/04 04:04:04;;;;;;;15.87;4.17;;;;;;;;;;5071382;28;20052;-62
2023/10/04 04:06:31;;;;;;;22.23;4.97;;;;;;;;;;5072108;28;20059;-62
2023/10/04 04:08:59;;;;;;;15.03;4.20;;;;;;;;;;5071417;28;20048;-62
2023/10/04 04:11:25;;;;;;;17.70;4.60;;;;;;;;;;5071683;28;20256;-63
2023/10/04 04:13:51;;;;;;;16.03;3.97;;;;;;;;;;5071111;28;20037;-62
2023/10/04 04:16:18;;;;;;;16.60;5.60;;;;;;;;;;5071774;28;20415;-62
2023/10/04 04:18:47;;;;;;;18.07;4.60;;;;;;;;;;5071424;28;20129;-62
2023/10/04 04:21:14;;;;;;;17.53;4.17;;;;;;;;;;5071516;28;20578;-62
2023/10/04 04:23:40;;;;;;;18.73;4.57;;;;;;;;;;5070650;28;20591;-62
2023/10/04 04:26:07;;;;;;;13.23;4.77;;;;;;;;;;5071597;28;20040;-62
2023/10/04 04:28:36;;;;;;;22.97;5.20;;;;;;;;;;5071582;28;20048;-62
2023/10/04 04:31:09;;;;;;;15.17;4.40;;;;;;;;;;5071411;28;20052;-63
2023/10/04 04:33:35;;;;;;;15.10;4.38;;;;;;;;;;5071046;28;20056;-63
2023/10/04 04:36:05;;;;;;;16.63;4.53;;;;;;;;;;5071101;28;20090;-63
2023/10/04 04:38:35;;;;;;;18.43;5.47;;;;;;;;;;5070571;28;20182;-63
2023/10/04 04:41:05;;;;;;;19.43;4.70;;;;;;;;;;5071020;28;20476;-63
2023/10/04 04:43:37;;;;;;;21.43;4.63;;;;;;;;;;5071563;28;20482;-62
2023/10/04 04:46:12;;;;;;;18.63;4.67;;;;;;;;;;5070633;28;20051;-63
2023/10/04 04:48:38;;;;;;;20.20;4.73;;;;;;;;;;5070493;28;20048;-63
2023/10/04 04:53:39;;;;;;;17.10;4.53;;;;;;;;;;5070670;28;20063;-63
2023/10/04 04:56:06;;;;;;;20.93;4.50;;;;;;;;;;5071068;28;20044;-63
2023/10/04 04:58:32;;;;;;;21.00;5.53;;;;;;;;;;5070460;28;20419;-63
2023/10/04 05:01:02;;;;;;;15.70;4.13;;;;;;;;;;5070525;28;20443;-63
2023/10/04 05:03:29;;;;;;;14.93;6.20;;;;;;;;;;5070812;28;20055;-62
2023/10/04 05:05:55;;;;;;;18.30;5.30;;;;;;;;;;5070682;28;20131;-62
2023/10/04 05:08:22;;;;;;;16.37;5.03;;;;;;;;;;5070463;28;20053;-62
2023/10/04 05:10:51;;;;;;;14.07;4.97;;;;;;;;;;5069997;28;20043;-63
2023/10/04 05:13:21;;;;;;;21.57;5.80;;;;;;;;;;5069910;28;20033;-63
2023/10/04 05:15:47;;;;;;;19.50;5.00;;;;;;;;;;5070551;28;20032;-63
2023/10/04 05:18:21;;;;;;;11.73;4.17;;;;;;;;;;5070308;28;20072;-63
2023/10/04 05:20:51;;;;;;;14.63;3.83;;;;;;;;;;5070244;28;20426;-62
2023/10/04 05:23:22;;;;;;;16.33;4.13;;;;;;;;;;5069762;28;20056;-62
2023/10/04 05:25:49;;;;;;;17.87;4.83;;;;;;;;;;5070157;28;20091;-63
2023/10/04 05:28:15;;;;;;;14.47;4.53;;;;;;;;;;5070045;28;20048;-63
2023/10/04 05:30:45;;;;;;;19.77;4.67;;;;;;;;;;5070071;28;20041;-62
2023/10/04 05:33:13;;;;;;;14.47;5.73;;;;;;;;;;5070325;28;20054;-65
2023/10/04 05:35:40;;;;;;;17.60;4.57;;;;;;;;;;5070037;28;20467;-63
2023/10/04 05:38:07;;;;;;;14.47;4.87;;;;;;;;;;5069534;28;20057;-65
2023/10/04 05:40:34;;;;;;;17.73;4.63;;;;;;;;;;5069936;28;20044;-63
2023/10/04 05:43:00;;;;;;;19.77;5.67;;;;;;;;;;5069802;28;20052;-63
2023/10/04 05:45:26;;;;;;;16.43;4.60;;;;;;;;;;5069975;28;20068;-62
2023/10/04 05:47:53;;;;;;;17.67;5.00;;;;;;;;;;5069371;28;20049;-62
2023/10/04 05:50:22;;;;;;;12.00;4.93;;;;;;;;;;5069490;28;20056;-62
2023/10/04 05:52:49;;;;;;;12.87;4.70;;;;;;;;;;5069765;28;20136;-62
2023/10/04 05:55:16;;;;;;;13.47;4.93;;;;;;;;;;5069095;28;20796;-62
2023/10/04 05:57:44;;;;;;;23.90;5.03;;;;;;;;;;5069747;28;20040;-62
2023/10/04 06:00:27;;;;;;;15.43;4.27;;;;;;;;;;5069463;28;20076;-62
2023/10/04 06:02:53;;;;;;;;;;;;;;;;;;5069857;28;20102;-63
2023/10/04 06:05:23;;;;;;;17.60;4.60;;;;;;;;;;5068823;28;19920;-62
2023/10/04 06:07:50;;;;;;;15.17;4.87;;;;;;;;;;5069224;28;20441;-63
2023/10/04 06:10:16;;;;;;;17.67;5.40;;;;;;;;;;5069230;28;20053;-62
2023/10/04 06:12:42;;;;;;;15.47;4.87;;;;;;;;;;5068867;28;20601;-63
2023/10/04 06:15:10;;;;;;;16.27;4.50;;;;;;;;;;5068617;28;20040;-62
2023/10/04 06:17:41;;;;;;;19.87;4.70;;;;;;;;;;5068890;28;20115;-62
2023/10/04 06:20:23;;;;;;;20.20;4.77;;;;;;;;;;5068887;28;20052;-62
2023/10/04 06:22:49;;;;;;;18.03;5.00;;;;;;;;;;5069133;28;20052;-62
2023/10/04 06:25:16;;;;;;;17.87;4.40;;;;;;;;;;5068084;28;20115;-62
2023/10/04 06:27:42;;;;;;;18.63;5.30;;;;;;;;;;5068346;28;20040;-63
2023/10/04 06:30:08;;;;;;;13.67;4.63;;;;;;;;;;5068465;28;20090;-62
2023/10/04 06:32:37;;;;;;;15.93;4.47;;;;;;;;;;5068618;28;20526;-63
2023/10/04 06:35:03;;;;;;;19.77;5.00;;;;;;;;;;5067120;28;20125;-63
2023/10/04 06:37:29;;;;;;;17.87;4.47;;;;;;;;;;5067950;28;20048;-63
2023/10/04 06:39:56;;;;;;;14.63;5.20;;;;;;;;;;5068841;28;20072;-62
2023/10/04 06:42:22;;;;;;;19.83;4.73;;;;;;;;;;5068493;28;20051;-62
2023/10/04 06:44:49;;;;;;;14.93;4.07;;;;;;;;;;5068353;28;20040;-62
2023/10/04 06:47:17;;;;;;;18.57;4.00;;;;;;;;;;5066998;28;20052;-62
2023/10/04 06:49:43;;;;;;;17.23;3.90;;;;;;;;;;5068211;28;20506;-62
2023/10/04 06:52:09;;;;;;;16.30;4.43;;;;;;;;;;5068196;28;20051;-62
2023/10/04 06:54:35;;;;;;;26.60;5.67;;;;;;;;;;5068234;28;20114;-62
2023/10/04 06:57:01;;;;;;;12.77;4.70;;;;;;;;;;5066594;28;20396;-63
2023/10/04 06:59:27;;;;;;;16.53;3.77;;;;;;;;;;5068415;28;20055;-62
2023/10/04 07:01:53;;;;;;;19.27;4.17;;;;;;;;;;5067988;28;20597;-63
2023/10/04 07:04:19;;;;;;;14.03;4.20;;;;;;;;;;5067650;28;20119;-63
2023/10/04 07:06:45;;;;;;;16.93;4.50;;;;;;;;;;5068259;28;20045;-63
2023/10/04 07:09:11;;;;;;;16.43;4.00;;;;;;;;;;5067924;28;20426;-63
2023/10/04 07:11:37;;;;;;;11.97;3.80;;;;;;;;;;5067577;28;20072;-63
2023/10/04 07:14:04;;;;;;;14.23;4.60;;;;;;;;;;5067763;28;20471;-63
2023/10/04 07:16:30;;;;;;;12.10;3.87;;;;;;;;;;5067945;28;20037;-64
2023/10/04 07:18:58;;;;;;;18.43;4.83;;;;;;;;;;5067782;28;20053;-62
2023/10/04 07:21:24;;;;;;;23.13;6.53;;;;;;;;;;5067229;28;20036;-63
2023/10/04 07:23:52;;;;;;;23.20;6.13;;;;;;;;;;5068003;28;20055;-62
2023/10/04 07:26:19;;;;;;;16.67;3.80;;;;;;;;;;5068009;28;20346;-63
2023/10/04 07:28:46;;;;;;;13.27;4.37;;;;;;;;;;5067767;28;20048;-62
2023/10/04 07:31:12;;;;;;;14.00;4.17;;;;;;;;;;5067421;28;20529;-63
2023/10/04 07:33:38;;;;;;;20.20;4.63;;;;;;;;;;5067913;28;20051;-63
2023/10/04 07:36:04;;;;;;;15.23;4.57;;;;;;;;;;5067526;28;20055;-63
2023/10/04 07:38:31;;;;;;;17.53;4.80;;;;;;;;;;5067758;28;20124;-63
2023/10/04 07:40:57;;;;;;;21.67;4.60;;;;;;;;;;5067510;28;20052;-63
2023/10/04 07:43:23;;;;;;;12.33;3.97;;;;;;;;;;5065740;28;20054;-63
2023/10/04 07:45:49;;;;;;;18.33;4.50;;;;;;;;;;5067508;28;20506;-63
2023/10/04 07:48:17;;;;;;;14.03;3.90;;;;;;;;;;5067392;28;20101;-63
2023/10/04 07:50:43;;;;;;;15.57;4.30;;;;;;;;;;5067260;28;20052;-64
2023/10/04 07:53:09;;;;;;;13.50;4.57;;;;;;;;;;5067859;28;20045;-63
2023/10/04 07:55:36;;;;;;;17.93;3.93;;;;;;;;;;5067621;28;20132;-63
2023/10/04 07:58:03;;;;;;;13.70;3.53;;;;;;;;;;5066742;28;20117;-63
2023/10/04 08:00:29;;;;;;;14.30;3.63;;;;;;;;;;5067676;28;20052;-63
2023/10/04 08:02:57;;;;;;;17.40;4.20;;;;;;;;;;5067660;28;20462;-63
2023/10/04 08:05:28;;;;;;;16.93;4.03;;;;;;;;;;5067054;28;20123;-63
2023/10/04 08:07:56;;;;;;;16.70;4.33;;;;;;;;;;5067607;28;20048;-63
2023/10/04 08:10:25;;;;;;;17.97;4.57;;;;;;;;;;5067174;28;20048;-62
2023/10/04 08:12:52;;;;;;;14.97;4.40;;;;;;;;;;5067494;28;20760;-63
2023/10/04 08:15:21;;;;;;;13.63;3.93;;;;;;;;;;5067157;28;20040;-62
2023/10/04 08:17:52;;;;;;;13.30;3.53;;;;;;;;;;5067170;28;20052;-63
2023/10/04 08:20:20;;;;;;;11.13;3.93;;;;;;;;;;5067625;28;20052;-62
2023/10/04 08:22:47;;;;;;;19.10;5.00;;;;;;;;;;5066621;28;20127;-63
2023/10/04 08:25:16;;;;;;;15.47;3.40;;;;;;;;;;5067194;28;20052;-62
2023/10/04 08:27:42;;;;;;;12.80;3.90;;;;;;;;;;5067397;28;20052;-62
2023/10/04 08:30:12;;;;;;;12.60;3.67;;;;;;;;;;5067302;28;20044;-62
2023/10/04 08:32:42;;;;;;;16.50;3.60;;;;;;;;;;5067526;28;20577;-62
2023/10/04 08:35:21;;;;;;;13.40;3.30;;;;;;;;;;5067187;28;20318;-62
2023/10/04 08:37:48;;;;;;;13.73;3.90;;;;;;;;;;5066853;28;20053;-62
2023/10/04 08:40:17;;;;;;;13.93;3.97;;;;;;;;;;5067143;28;20106;-62
2023/10/04 08:42:43;;;;;;;14.00;3.77;;;;;;;;;;5066951;28;20090;-63
2023/10/04 08:45:09;;;;;;;13.27;4.50;;;;;;;;;;5065608;28;20048;-62
2023/10/04 08:47:35;;;;;;;9.87;3.80;;;;;;;;;;5067465;28;20076;-62
2023/10/04 08:50:03;;;;;;;18.23;3.73;;;;;;;;;;5070351;28;20048;-62
2023/10/04 08:52:36;;;;;;;11.00;3.30;;;;;;;;;;5070468;28;20058;-67
2023/10/04 08:55:07;;;;;;;;;;;;;;;;;;5070404;28;20499;-63
2023/10/04 08:57:35;;;;;;;12.77;3.83;;;;;;;;;;5070609;28;19920;-63
2023/10/04 09:00:02;;;;;;;14.17;3.93;;;;;;;;;;5070340;28;20094;-62
2023/10/04 09:02:30;;;;;;;12.33;3.67;;;;;;;;;;5070618;28;20057;-62
2023/10/04 09:04:56;;;;;;;14.13;3.23;;;;;;;;;;5069854;28;20040;-63
2023/10/04 09:07:23;;;;;;;13.40;3.90;;;;;;;;;;5070238;28;20037;-62
2023/10/04 09:09:50;;;;;;;15.10;4.87;;;;;;;;;;5070381;28;20055;-63
2023/10/04 09:12:17;;;;;;;11.87;3.77;;;;;;;;;;5070333;28;20051;-63
2023/10/04 09:14:43;;;;;;;9.37;3.40;;;;;;;;;;5070097;28;20049;-63
2023/10/04 09:17:17;;;;;;;13.13;4.47;;;;;;;;;;5070205;28;20036;-63
2023/10/04 09:19:45;;;;;;;10.50;4.27;;;;;;;;;;5069818;28;20071;-63
2023/10/04 09:22:11;;;;;;;11.63;3.87;;;;;;;;;;5070293;28;20040;-63
2023/10/04 09:24:55;;;;;;;13.67;4.10;;;;;;;;;;5069939;28;20498;-63
2023/10/04 09:27:21;;;;;;;15.17;3.47;;;;;;;;;;5069950;28;20055;-63
2023/10/04 09:29:54;;;;;;;9.97;3.93;;;;;;;;;;5070099;28;20399;-63
2023/10/04 09:32:40;;;;;;;11.25;3.30;;;;;;;;;;5069406;28;20079;-63
2023/10/04 09:35:06;;;;;;;20.27;4.93;;;;;;;;;;5070175;28;20481;-63
2023/10/04 09:37:32;;;;;;;12.97;3.60;;;;;;;;;;5069651;28;20048;-63
2023/10/04 09:40:10;;;;;;;11.73;3.73;;;;;;;;;;5069895;28;20406;-63
2023/10/04 09:42:46;;;;;;;11.60;3.60;;;;;;;;;;5069479;28;20437;-63
2023/10/04 09:45:13;;;;;;;11.70;3.90;;;;;;;;;;5069305;28;20546;-63
2023/10/04 09:47:39;;;;;;;10.27;3.60;;;;;;;;;;5069339;28;20139;-63
2023/10/04 09:50:19;;;;;;;13.97;3.93;;;;;;;;;;5069685;28;20057;-63
2023/10/04 09:52:45;;;;;;;10.97;4.07;;;;;;;;;;5068830;28;20051;-63
2023/10/04 09:55:13;;;;;;;13.40;4.00;;;;;;;;;;5069764;28;20040;-63
2023/10/04 09:57:42;;;;;;;16.73;4.40;;;;;;;;;;5069810;28;20044;-63
2023/10/04 10:00:17;;;;;;;12.23;3.90;;;;;;;;;;5069289;28;20040;-63
2023/10/04 10:02:44;;;;;;;11.60;3.83;;;;;;;;;;5068354;28;20128;-65
2023/10/04 10:05:11;;;;;;;10.93;3.83;;;;;;;;;;5068915;28;20114;-63
2023/10/04 10:07:38;;;;;;;10.03;3.60;;;;;;;;;;5069315;28;20055;-63
2023/10/04 10:10:05;;;;;;;14.00;4.73;;;;;;;;;;5069251;28;20041;-64
2023/10/04 10:12:35;;;;;;;10.60;4.13;;;;;;;;;;5069104;28;20060;-63
2023/10/04 10:15:02;;;;;;;13.40;3.60;;;;;;;;;;5068459;28;20134;-63
2023/10/04 10:17:30;;;;;;;17.17;3.63;;;;;;;;;;5068690;28;20517;-63
2023/10/04 10:19:56;;;;;;;13.53;4.50;;;;;;;;;;5068838;28;20052;-63
2023/10/04 10:22:22;;;;;;;13.90;4.40;;;;;;;;;;5068771;28;20163;-63
2023/10/04 10:24:57;;;;;;;12.13;4.20;;;;;;;;;;5068879;28;20059;-63
2023/10/04 10:27:24;;;;;;;12.17;3.63;;;;;;;;;;5068293;28;20503;-63
2023/10/04 10:29:51;;;;;;;13.17;4.43;;;;;;;;;;5068648;28;20495;-63
2023/10/04 10:32:20;;;;;;;16.13;4.50;;;;;;;;;;5068525;28;20474;-63
2023/10/04 10:34:49;;;;;;;12.27;4.40;;;;;;;;;;5068509;28;20044;-63
2023/10/04 10:37:19;;;;;;;12.90;3.87;;;;;;;;;;5068037;28;20522;-63
2023/10/04 10:39:50;;;;;;;11.90;4.43;;;;;;;;;;5068791;28;20411;-63
2023/10/04 10:42:16;;;;;;;15.73;4.17;;;;;;;;;;5068641;28;20048;-63
2023/10/04 10:44:43;;;;;;;17.33;5.63;;;;;;;;;;5067640;28;20044;-62
2023/10/04 10:47:21;;;;;;;12.63;4.70;;;;;;;;;;5068284;28;20411;-63
2023/10/04 10:50:03;;;;;;;16.83;5.20;;;;;;;;;;5068310;28;20139;-62
2023/10/04 10:52:39;;;;;;;11.53;4.37;;;;;;;;;;5068513;28;20048;-62
2023/10/04 10:55:06;;;;;;;14.30;4.43;;;;;;;;;;5068117;28;20139;-62
2023/10/04 10:57:32;;;;;;;14.70;4.73;;;;;;;;;;5067927;28;20036;-62
2023/10/04 11:00:03;;;;;;;14.60;4.03;;;;;;;;;;5067930;28;20048;-62
2023/10/04 11:02:29;;;;;;;11.47;4.27;;;;;;;;;;5068247;28;20049;-62
2023/10/04 11:04:55;;;;;;;14.27;4.40;;;;;;;;;;5068212;28;20435;-62
2023/10/04 11:07:21;;;;;;;16.07;4.77;;;;;;;;;;5068468;28;20087;-62
2023/10/04 11:09:51;;;;;;;22.10;4.87;;;;;;;;;;5067638;28;20109;-62
2023/10/04 11:12:18;;;;;;;15.30;4.93;;;;;;;;;;5066604;28;20044;-62
2023/10/04 11:14:44;;;;;;;13.50;4.80;;;;;;;;;;5067653;28;20561;-61
2023/10/04 11:17:10;;;;;;;14.47;4.50;;;;;;;;;;5068023;28;20135;-61
2023/10/04 11:19:37;;;;;;;14.93;5.10;;;;;;;;;;5068016;28;20564;-61
2023/10/04 11:22:03;;;;;;;14.37;5.47;;;;;;;;;;5067790;28;20101;-62
2023/10/04 11:24:30;;;;;;;14.90;4.60;;;;;;;;;;5067209;28;20040;-62
2023/10/04 11:27:01;;;;;;;11.80;4.63;;;;;;;;;;5068071;28;20279;-61
2023/10/04 11:29:28;;;;;;;14.80;4.50;;;;;;;;;;5067811;28;20079;-61
2023/10/04 11:31:56;;;;;;;16.77;4.83;;;;;;;;;;5067413;28;20048;-61
2023/10/04 11:34:22;;;;;;;13.00;4.60;;;;;;;;;;5067641;28;20084;-62
2023/10/04 11:36:48;;;;;;;15.70;4.67;;;;;;;;;;5067213;28;22293;-61
2023/10/04 11:39:18;;;;;;;17.03;4.10;;;;;;;;;;5066604;28;20135;-61
2023/10/04 11:41:51;;;;;;;19.50;6.50;;;;;;;;;;5067418;28;20055;-61
2023/10/04 11:44:19;;;;;;;15.65;5.05;;;;;;;;;;5067986;28;20441;-61
2023/10/04 11:46:53;;;;;;;16.30;4.50;;;;;;;;;;5067404;28;20098;-61
2023/10/04 11:49:19;;;;;;;15.00;4.47;;;;;;;;;;5067693;28;20055;-61
2023/10/04 11:51:45;;;;;;;16.33;4.80;;;;;;;;;;5067030;28;20381;-61
2023/10/04 11:54:11;;;;;;;15.73;4.90;;;;;;;;;;5067409;28;20048;-61
2023/10/04 11:56:41;;;;;;;16.43;5.73;;;;;;;;;;5067820;28;20056;-61
2023/10/04 11:59:08;;;;;;;13.10;4.37;;;;;;;;;;5067868;28;20136;-61
2023/10/04 12:01:47;;;;;;;13.87;4.33;;;;;;;;;;5067565;28;20158;-61
2023/10/04 12:04:14;;;;;;;15.60;4.80;;;;;;;;;;5067793;28;20051;-60
2023/10/04 12:06:41;;;;;;;15.77;3.60;;;;;;;;;;5067138;28;20384;-60
2023/10/04 12:09:08;;;;;;;10.53;3.90;;;;;;;;;;5067251;28;20102;-61
2023/10/04 12:11:35;;;;;;;13.70;4.73;;;;;;;;;;5067415;28;20079;-61
2023/10/04 12:14:05;;;;;;;17.63;5.23;;;;;;;;;;5067584;28;20059;-61
2023/10/04 12:16:36;;;;;;;18.40;4.60;;;;;;;;;;5067397;28;20051;-61
2023/10/04 12:19:02;;;;;;;14.50;4.30;;;;;;;;;;5066574;28;20079;-60
2023/10/04 12:21:29;;;;;;;14.73;4.07;;;;;;;;;;5067032;28;20094;-61
2023/10/04 12:23:56;;;;;;;15.67;4.27;;;;;;;;;;5069758;28;20414;-60
2023/10/04 12:26:23;;;;;;;15.33;4.20;;;;;;;;;;5071236;28;20134;-60
2023/10/04 12:28:50;;;;;;;16.00;4.30;;;;;;;;;;5070318;28;20485;-60
2023/10/04 12:31:16;;;;;;;15.60;4.50;;;;;;;;;;5070944;28;20049;-60
2023/10/04 12:33:42;;;;;;;14.33;3.73;;;;;;;;;;5070773;28;20055;-63
2023/10/04 12:36:09;;;;;;;15.93;5.10;;;;;;;;;;5071008;28;20048;-61
2023/10/04 12:38:36;;;;;;;17.00;4.23;;;;;;;;;;5070388;28;20068;-61
2023/10/04 12:41:03;;;;;;;12.77;4.13;;;;;;;;;;5070543;28;20553;-62
2023/10/04 12:43:29;;;;;;;12.73;4.43;;;;;;;;;;5070635;28;20056;-61
2023/10/04 12:45:55;;;;;;;17.23;3.73;;;;;;;;;;5070893;28;20048;-64
2023/10/04 12:48:21;;;;;;;13.43;4.07;;;;;;;;;;5070752;28;20486;-60
2023/10/04 12:50:48;;;;;;;17.60;4.83;;;;;;;;;;5070372;28;20475;-60
2023/10/04 12:53:17;;;;;;;14.33;4.30;;;;;;;;;;5070097;28;20037;-60
2023/10/04 12:55:47;;;;;;;18.27;4.40;;;;;;;;;;5070518;28;20052;-60
2023/10/04 12:58:14;;;;;;;18.20;4.83;;;;;;;;;;5070420;28;20059;-60
2023/10/04 13:00:43;;;;;;;9.27;3.73;;;;;;;;;;5070326;28;20040;-60
2023/10/04 13:03:09;;;;;;;11.87;4.57;;;;;;;;;;5070044;28;20044;-60
2023/10/04 13:05:38;;;;;;;15.10;4.47;;;;;;;;;;5070489;28;20037;-60
2023/10/04 13:08:16;;;;;;;11.80;3.33;;;;;;;;;;5070763;28;20113;-60
2023/10/04 13:10:42;;;;;;;13.67;3.73;;;;;;;;;;5070334;28;20053;-59
2023/10/04 13:13:08;;;;;;;10.37;3.63;;;;;;;;;;5070062;28;20486;-60
2023/10/04 13:15:37;;;;;;;9.30;3.27;;;;;;;;;;5069596;28;20114;-60
2023/10/04 13:18:07;;;;;;;12.87;3.80;;;;;;;;;;5070142;28;20040;-60
2023/10/04 13:20:33;;;;;;;13.83;3.57;;;;;;;;;;5069858;28;20434;-60
2023/10/04 13:23:00;;;;;;;11.20;3.53;;;;;;;;;;5070165;28;20067;-60
2023/10/04 13:25:26;;;;;;;14.40;3.87;;;;;;;;;;5069925;28;20060;-60
2023/10/04 13:27:52;;;;;;;10.07;3.33;;;;;;;;;;5069315;28;20466;-61
2023/10/04 13:30:18;;;;;;;13.87;3.40;;;;;;;;;;5069909;28;20056;-61
2023/10/04 13:32:52;;;;;;;10.23;3.90;;;;;;;;;;5069850;28;20518;-60
2023/10/04 13:35:20;;;;;;;14.67;4.07;;;;;;;;;;5069708;28;20112;-60
2023/10/04 13:37:52;;;;;;;12.13;4.23;;;;;;;;;;5069103;28;20426;-60
2023/10/04 13:40:24;;;;;;;11.13;3.65;;;;;;;;;;5070109;28;20052;-61
2023/10/04 13:42:50;;;;;;;10.85;4.10;;;;;;;;;;5069519;28;20066;-60
2023/10/04 13:45:17;;;;;;;14.03;4.47;;;;;;;;;;5069480;28;20040;-60
2023/10/04 13:47:44;;;;;;;13.20;3.63;;;;;;;;;;5069278;28;20040;-60
2023/10/04 13:50:10;;;;;;;13.00;4.70;;;;;;;;;;5069601;28;20048;-61
2023/10/04 13:52:39;;;;;;;17.37;4.23;;;;;;;;;;5069398;28;20045;-60
2023/10/04 13:55:05;;;;;;;15.53;4.23;;;;;;;;;;5068945;28;20132;-60
2023/10/04 13:57:31;;;;;;;14.30;4.83;;;;;;;;;;5069350;28;20045;-61
2023/10/04 13:59:57;;;;;;;13.23;3.73;;;;;;;;;;5069376;28;20048;-61
2023/10/04 14:02:23;;;;;;;14.60;3.87;;;;;;;;;;5069323;28;20110;-60
2023/10/04 14:04:49;;;;;;;15.40;4.93;;;;;;;;;;5069485;28;20478;-60
2023/10/04 14:07:16;;;;;;;15.87;4.07;;;;;;;;;;5069310;28;20051;-60
2023/10/04 14:09:43;;;;;;;12.53;4.33;;;;;;;;;;5068504;28;20045;-60
2023/10/04 14:12:12;;;;;;;12.07;4.17;;;;;;;;;;5069023;28;20091;-61
2023/10/04 14:14:38;;;;;;;13.63;4.60;;;;;;;;;;5068919;28;20181;-61
2023/10/04 14:17:08;;;;;;;16.73;4.50;;;;;;;;;;5069366;28;20566;-61
2023/10/04 14:19:36;;;;;;;11.23;4.33;;;;;;;;;;5068395;28;20122;-61
2023/10/04 14:22:05;;;;;;;11.00;3.83;;;;;;;;;;5069117;28;20444;-60
2023/10/04 14:24:32;;;;;;;12.87;4.20;;;;;;;;;;5068630;28;20091;-60
2023/10/04 14:27:01;;;;;;;16.57;4.33;;;;;;;;;;5068757;28;20095;-60
2023/10/04 14:29:27;;;;;;;13.20;4.20;;;;;;;;;;5068938;28;20939;-60
2023/10/04 14:31:54;;;;;;;12.17;4.07;;;;;;;;;;5068581;28;20044;-60
2023/10/04 14:34:20;;;;;;;15.33;4.50;;;;;;;;;;5068155;28;20078;-60
2023/10/04 14:36:47;;;;;;;10.83;3.33;;;;;;;;;;5068244;28;20081;-61
2023/10/04 14:39:13;;;;;;;11.50;4.30;;;;;;;;;;5068587;28;20533;-60